Time;durP1;ratioP1;P1;durP2;ratioP2;P2;SDS_P1;SDS_P2;PMS_P1;PMS_P2;Temp;Humidity;BMP_temperature;BMP_pressure;BME280_temperature;BME280_humidity;BME280_pressure;Samples;Min_cycle;Max_cycle;Signal;HPM_P1;HPM_P2
2023/02/13 00:00:33;;;;;;;;;;;8.90;1.00;;;;;;5093389;28;19962;-75
2023/02/13 00:03:03;;;;;;;;;;;8.90;1.00;;;;;;5081318;28;20406;-75
2023/02/13 00:05:29;;;;;;;;;;;8.90;1.00;;;;;;5094659;28;20347;-76
2023/02/13 00:07:54;;;;;;;;;;;8.90;1.00;;;;;;5094568;28;19923;-76
2023/02/13 00:10:20;;;;;;;;;;;8.90;1.00;;;;;;5093875;28;20364;-75
2023/02/13 00:12:57;;;;;;;;;;;8.90;1.00;;;;;;5090961;28;19909;-76
2023/02/13 00:15:22;;;;;;;;;;;8.90;1.00;;;;;;5094403;28;19908;-75
2023/02/13 00:17:48;;;;;;;;;;;8.90;1.00;;;;;;5094306;28;19909;-76
2023/02/13 00:20:13;;;;;;;;;;;8.90;1.00;;;;;;5082582;28;19916;-75
2023/02/13 00:23:03;;;;;;;;;;;8.90;1.00;;;;;;5089101;28;20259;-76
2023/02/13 00:25:33;;;;;;;;;;;8.80;1.00;;;;;;5074620;28;19909;-76
2023/02/13 00:27:58;;;;;;;;;;;8.80;1.00;;;;;;5086379;28;19912;-76
2023/02/13 00:30:27;;;;;;;;;;;8.80;1.00;;;;;;5096660;28;20401;-75
2023/02/13 00:32:52;;;;;;;;;;;8.80;1.00;;;;;;5086561;28;19919;-75
2023/02/13 00:41:24;;;;;;;;;;;8.80;1.00;;;;;;5090548;28;19993;-86
2023/02/13 00:46:53;;;;;;;;;;;8.80;1.00;;;;;;5098100;28;19922;-85
2023/02/13 00:49:33;;;;;;;;;;;8.80;1.00;;;;;;5079236;28;19959;-85
2023/02/13 00:51:58;;;;;;;;;;;8.80;1.00;;;;;;5084434;28;19957;-75
2023/02/13 00:54:27;;;;;;;;;;;8.70;1.00;;;;;;5098449;28;19908;-76
2023/02/13 00:56:57;;;;;;;;;;;8.70;1.00;;;;;;5097898;28;19950;-75
2023/02/13 00:59:27;;;;;;;;;;;8.70;1.00;;;;;;5084032;28;19912;-76
2023/02/13 01:02:09;;;;;;;;;;;8.70;1.00;;;;;;5094241;28;19912;-75
2023/02/13 01:04:39;;;;;;;;;;;8.70;1.00;;;;;;5086499;28;19923;-75
2023/02/13 01:13:11;;;;;;;;;;;8.60;1.00;;;;;;5077652;28;19977;-86
2023/02/13 01:15:57;;;;;;;;;;;8.60;1.00;;;;;;5076358;28;19919;-86
2023/02/13 01:24:57;;;;;;;;;;;8.70;1.00;;;;;;5083206;28;19919;-85
2023/02/13 01:40:09;;;;;;;;;;;8.50;1.00;;;;;;5097623;28;19963;-86
2023/02/13 01:42:57;;;;;;;;;;;8.40;1.00;;;;;;5095542;28;19916;-85
2023/02/13 01:45:24;;;;;;;;;;;8.30;1.00;;;;;;5059860;28;19916;-85
2023/02/13 01:51:04;;;;;;;;;;;8.10;1.00;;;;;;5096938;28;19919;-75
2023/02/13 01:53:39;;;;;;;;;;;7.90;1.00;;;;;;5096845;28;20011;-76
2023/02/13 01:56:24;;;;;;;;;;;7.90;1.00;;;;;;5083597;28;19909;-75
2023/02/13 01:58:52;;;;;;;;;;;7.80;1.00;;;;;;5085360;28;20255;-76
2023/02/13 02:01:18;;;;;;;;;;;7.60;1.00;;;;;;5087136;28;20381;-76
2023/02/13 02:03:50;;;;;;;;;;;7.50;1.00;;;;;;5079457;28;19912;-75
2023/02/13 02:09:22;;;;;;;;;;;7.30;1.00;;;;;;5087111;28;19932;-85
2023/02/13 02:21:15;;;;;;;;;;;6.70;1.00;;;;;;5096363;28;19915;-85
2023/02/13 02:23:51;;;;;;;;;;;6.50;1.00;;;;;;5078924;28;19947;-85
2023/02/13 02:26:39;;;;;;;;;;;6.40;1.00;;;;;;5078766;28;20281;-85
2023/02/13 02:35:39;;;;;;;;;;;6.00;1.00;;;;;;5082640;28;19961;-85
2023/02/13 02:38:39;;;;;;;;;;;5.90;1.00;;;;;;5091630;28;19909;-85
2023/02/13 02:41:42;;;;;;;;;;;5.70;1.00;;;;;;5065834;28;19916;-85
2023/02/13 02:50:12;;;;;;;;;;;5.40;1.00;;;;;;5106916;28;20000;-85
2023/02/13 02:52:57;;;;;;;;;;;5.30;1.00;;;;;;5066895;28;19935;-75
2023/02/13 02:55:25;;;;;;;;;;;5.20;1.00;;;;;;5076688;28;20221;-75
2023/02/13 03:24:40;;;;;;;;;;;4.30;1.00;;;;;;4993858;28;19996;-76
2023/02/13 03:27:14;;;;;;;;;;;4.20;1.00;;;;;;4993712;28;20385;-75
2023/02/13 03:32:32;;;;;;;;;;;4.10;1.00;;;;;;5012272;28;19971;-75
2023/02/13 03:38:27;;;;;;;;;;;4.00;1.00;;;;;;5013842;28;20403;-86
2023/02/13 03:46:45;;;;;;;;;;;3.80;1.00;;;;;;5013428;28;19921;-85
2023/02/13 03:52:14;;;;;;;;;;;3.70;1.00;;;;;;5085866;28;20428;-76
2023/02/13 04:01:09;;;;;;;;;;;3.60;1.00;;;;;;5082914;28;19937;-76
2023/02/13 04:03:44;;;;;;;;;;;3.50;1.00;;;;;;5082353;28;19908;-76
2023/02/13 04:06:39;;;;;;;;;;;3.40;1.00;;;;;;5094527;28;20316;-76
2023/02/13 04:09:09;;;;;;;;;;;3.30;1.00;;;;;;5094320;28;19912;-75
2023/02/13 04:12:03;;;;;;;;;;;3.30;1.00;;;;;;5077619;28;20462;-75
2023/02/13 04:14:57;;;;;;;;;;;3.20;1.00;;;;;;5091751;28;19911;-75
2023/02/13 04:17:51;;;;;;;;;;;3.20;1.00;;;;;;5094406;28;19908;-75
2023/02/13 04:20:21;;;;;;;;;;;3.10;1.00;;;;;;5090603;28;20008;-75
2023/02/13 04:22:51;;;;;;;;;;;3.00;1.00;;;;;;5095184;28;19908;-86
2023/02/13 04:28:19;;;;;;;;;;;2.90;1.00;;;;;;5094959;28;19938;-85
2023/02/13 04:36:51;;;;;;;;;;;2.80;1.00;;;;;;5094806;28;19915;-77
2023/02/13 04:39:21;;;;;;;;;;;2.80;1.00;;;;;;5094373;28;19912;-76
2023/02/13 04:41:46;;;;;;;;;;;2.80;1.00;;;;;;5080174;28;19999;-76
2023/02/13 04:44:21;;;;;;;;;;;2.70;1.00;;;;;;5094705;28;19993;-75
2023/02/13 04:47:09;;;;;;;;;;;2.70;1.10;;;;;;5096404;28;19916;-76
2023/02/13 04:49:39;;;;;;;;;;;2.60;1.80;;;;;;5096277;28;19908;-75
2023/02/13 04:52:05;;;;;;;;;;;2.60;3.40;;;;;;5087444;28;19919;-76
2023/02/13 04:54:30;;;;;;;;;;;2.60;4.10;;;;;;5086885;28;20292;-76
2023/02/13 04:56:57;;;;;;;;;;;2.60;5.20;;;;;;5093620;28;20249;-76
2023/02/13 04:59:23;;;;;;;;;;;2.50;5.70;;;;;;5093813;28;19935;-76
2023/02/13 05:02:15;;;;;;;;;;;2.50;7.90;;;;;;5092519;28;19912;-77
2023/02/13 05:04:40;;;;;;;;;;;2.50;8.10;;;;;;5080989;28;19916;-78
2023/02/13 05:07:06;;;;;;;;;;;2.50;9.20;;;;;;5093927;28;19912;-77
2023/02/13 05:12:46;;;;;;;;;;;2.40;7.60;;;;;;5093090;28;19961;-79
2023/02/13 05:18:14;;;;;;;;;;;2.40;9.50;;;;;;5077177;28;19959;-79
2023/02/13 05:23:51;;;;;;;;;;;2.30;9.40;;;;;;5097761;28;19914;-76
2023/02/13 05:26:27;;;;;;;;;;;2.30;9.20;;;;;;5084090;28;20572;-77
2023/02/13 05:31:57;;;;;;;;;;;2.20;10.80;;;;;;5097252;28;19915;-76
2023/02/13 05:34:45;;;;;;;;;;;2.20;10.30;;;;;;5084136;28;19916;-77
2023/02/13 05:37:27;;;;;;;;;;;2.20;12.10;;;;;;5094576;28;19912;-77
2023/02/13 05:40:27;;;;;;;;;;;2.10;12.80;;;;;;5097511;28;19908;-76
2023/02/13 05:42:57;;;;;;;;;;;2.10;13.50;;;;;;5091791;28;19912;-76
2023/02/13 05:45:27;;;;;;;;;;;2.10;15.60;;;;;;5094851;28;19923;-77
2023/02/13 05:48:09;;;;;;;;;;;2.10;21.30;;;;;;5097247;28;20007;-77
2023/02/13 05:50:34;;;;;;;;;;;2.10;19.80;;;;;;5088986;28;19908;-76
2023/02/13 05:56:15;;;;;;;;;;;2.00;24.30;;;;;;5096208;28;19915;-79
2023/02/13 05:59:03;;;;;;;;;;;2.00;26.80;;;;;;5088884;28;19916;-78
2023/02/13 06:07:45;;;;;;;;;;;2.00;32.50;;;;;;5096549;28;19919;-79
2023/02/13 06:13:15;;;;;;;;;;;2.00;36.30;;;;;;5076323;28;20406;-76
2023/02/13 06:15:51;;;;;;;;;;;2.00;36.00;;;;;;5090847;28;19908;-77
2023/02/13 06:18:34;;;;;;;;;;;2.00;36.30;;;;;;5092646;28;19908;-76
2023/02/13 06:21:04;;;;;;;;;;;1.90;33.80;;;;;;5084969;28;20394;-76
2023/02/13 06:23:39;;;;;;;;;;;1.90;31.30;;;;;;5088783;28;19908;-78
2023/02/13 06:29:08;;;;;;;;;;;1.90;29.10;;;;;;5094690;28;20014;-78
2023/02/13 06:40:45;;;;;;;;;;;1.80;29.50;;;;;;5078169;28;19919;-77
2023/02/13 06:43:45;;;;;;;;;;;1.80;32.50;;;;;;5091451;28;19954;-77
2023/02/13 06:46:15;;;;;;;;;;;1.80;29.90;;;;;;5093098;28;19916;-77
2023/02/13 06:49:03;;;;;;;;;;;1.80;26.90;;;;;;5100555;28;20006;-77
2023/02/13 06:51:33;;;;;;;;;;;1.80;25.20;;;;;;5095436;28;19948;-77
2023/02/13 06:54:15;;;;;;;;;;;1.80;24.90;;;;;;5095840;28;19908;-76
2023/02/13 06:56:45;;;;;;;;;;;1.80;24.50;;;;;;5095544;28;19939;-78
2023/02/13 06:59:15;;;;;;;;;;;1.80;24.70;;;;;;5095353;28;20004;-76
2023/02/13 07:01:41;;;;;;;;;;;1.80;28.30;;;;;;5095259;28;19908;-76
2023/02/13 07:04:06;;;;;;;;;;;1.90;35.90;;;;;;5089776;28;19912;-76
2023/02/13 07:06:32;;;;;;;;;;;1.90;36.10;;;;;;5095406;28;20321;-76
2023/02/13 07:09:15;;;;;;;;;;;1.90;36.00;;;;;;5087389;28;19912;-81
2023/02/13 07:11:45;;;;;;;;;;;2.00;36.30;;;;;;5065128;28;19961;-76
2023/02/13 07:14:15;;;;;;;;;;;2.00;36.10;;;;;;5095033;28;19908;-76
2023/02/13 07:16:41;;;;;;;;;;;2.00;36.10;;;;;;5095292;28;19908;-77
2023/02/13 07:19:21;;;;;;;;;;;2.10;36.20;;;;;;5087247;28;19919;-76
2023/02/13 07:21:51;;;;;;;;;;;2.10;36.20;;;;;;5085798;28;20002;-76
2023/02/13 07:24:17;;;;;;;;;;;2.10;36.40;;;;;;5095604;28;19908;-76
2023/02/13 07:26:42;;;;;;;;;;;2.20;36.30;;;;;;5094875;28;19908;-76
2023/02/13 07:29:09;;;;;;;;;;;2.20;36.30;;;;;;5091435;28;19916;-76
2023/02/13 07:31:45;;;;;;;;;;;2.30;36.50;;;;;;5087810;28;19919;-76
2023/02/13 07:34:11;;;;;;;;;;;2.30;36.40;;;;;;5088540;28;19916;-76
2023/02/13 07:36:36;;;;;;;;;;;2.40;36.40;;;;;;5094706;28;19990;-76
2023/02/13 07:48:15;;;;;;;;;;;2.70;36.60;;;;;;5088690;28;19943;-85
2023/02/13 07:50:41;;;;;;;;;;;2.80;36.70;;;;;;5092887;28;19965;-85
2023/02/13 07:53:15;;;;;;;;;;;2.80;36.80;;;;;;5077067;28;20376;-85
2023/02/13 07:55:45;;;;;;;;;;;2.90;37.00;;;;;;5072180;28;19908;-76
2023/02/13 07:58:45;;;;;;;;;;;3.00;37.00;;;;;;5091174;28;19919;-76
2023/02/13 08:01:33;;;;;;;;;;;3.10;37.30;;;;;;5089360;28;20002;-76
2023/02/13 08:04:15;;;;;;;;;;;3.20;37.10;;;;;;5082158;28;19909;-76
2023/02/13 08:06:45;;;;;;;;;;;3.20;37.10;;;;;;5074788;28;19908;-76
2023/02/13 08:12:33;;;;;;;;;;;3.40;37.30;;;;;;5085365;28;19954;-76
2023/02/13 08:15:11;;;;;;;;;;;3.50;37.40;;;;;;5090071;28;19913;-76
2023/02/13 08:17:45;;;;;;;;;;;3.70;37.50;;;;;;5094346;28;19908;-76
2023/02/13 08:20:15;;;;;;;;;;;3.80;37.60;;;;;;5092464;28;20010;-76
2023/02/13 08:22:45;;;;;;;;;;;3.80;37.80;;;;;;5056740;28;20294;-76
2023/02/13 08:25:11;;;;;;;;;;;4.00;37.80;;;;;;5088099;28;19954;-85
2023/02/13 08:27:45;;;;;;;;;;;4.10;38.00;;;;;;5092494;28;19912;-85
2023/02/13 08:30:45;;;;;;;;;;;4.20;38.00;;;;;;5058653;28;19995;-85
2023/02/13 08:33:10;;;;;;;;;;;4.30;38.00;;;;;;5071881;28;19922;-85
2023/02/13 08:35:45;;;;;;;;;;;4.50;45.40;;;;;;5065036;28;19912;-85
2023/02/13 08:38:15;;;;;;;;;;;4.60;50.50;;;;;;5092465;28;19908;-85
2023/02/13 08:41:17;;;;;;;;;;;4.80;53.30;;;;;;5094659;28;20426;-85
2023/02/13 08:47:03;;;;;;;;;;;5.00;41.60;;;;;;5086072;28;19927;-85
2023/02/13 08:49:29;;;;;;;;;;;5.20;38.70;;;;;;5071487;28;19943;-86
2023/02/13 08:52:15;;;;;;;;;;;5.30;38.90;;;;;;5098406;28;19908;-85
2023/02/13 08:54:45;;;;;;;;;;;5.30;38.90;;;;;;5079176;28;19915;-77
2023/02/13 08:57:21;;;;;;;;;;;5.40;39.00;;;;;;5086547;28;19908;-76
2023/02/13 09:00:15;;;;;;;;;;;5.40;29.70;;;;;;5085353;28;19994;-77
2023/02/13 09:03:01;;;;;;;;;;;5.50;19.20;;;;;;5091911;28;19915;-76
2023/02/13 09:05:57;;;;;;;;;;;5.50;14.30;;;;;;5097796;28;19908;-76
2023/02/13 09:08:23;;;;;;;;;;;5.60;11.70;;;;;;5077321;28;19912;-76
2023/02/13 09:11:06;;;;;;;;;;;5.60;8.80;;;;;;5080146;28;19920;-76
2023/02/13 09:13:47;;;;;;;;;;;5.70;6.20;;;;;;5087176;28;20307;-77
2023/02/13 09:16:21;;;;;;;;;;;5.70;2.00;;;;;;5097473;28;19912;-77
2023/02/13 09:18:47;;;;;;;;;;;5.80;1.00;;;;;;5097429;28;19908;-77
2023/02/13 09:21:45;;;;;;;;;;;5.80;1.00;;;;;;5086936;28;20371;-76
2023/02/13 09:24:15;;;;;;;;;;;5.80;1.00;;;;;;5085919;28;19916;-76
2023/02/13 09:26:45;;;;;;;;;;;5.90;1.00;;;;;;5098309;28;19958;-85
2023/02/13 09:29:15;;;;;;;;;;;5.90;1.00;;;;;;5078081;28;19920;-85
2023/02/13 09:31:45;;;;;;;;;;;5.90;1.00;;;;;;5097928;28;19915;-85
2023/02/13 09:34:15;;;;;;;;;;;6.00;1.00;;;;;;5059904;28;19959;-85
2023/02/13 09:37:15;;;;;;;;;;;6.10;1.00;;;;;;5068064;28;20003;-86
2023/02/13 09:39:45;;;;;;;;;;;6.20;1.00;;;;;;5068695;28;20275;-77
2023/02/13 09:42:39;;;;;;;;;;;6.30;1.00;;;;;;5095088;28;19912;-76
2023/02/13 09:45:17;;;;;;;;;;;6.40;1.00;;;;;;5086915;28;19999;-76
2023/02/13 09:47:45;;;;;;;;;;;6.50;1.00;;;;;;5091520;28;19916;-76
2023/02/13 09:50:11;;;;;;;;;;;6.70;1.00;;;;;;5096873;28;19908;-76
2023/02/13 09:52:37;;;;;;;;;;;6.70;1.00;;;;;;5089681;28;20356;-76
2023/02/13 09:55:17;;;;;;;;;;;6.90;1.00;;;;;;5095454;28;19919;-85
2023/02/13 09:58:09;;;;;;;;;;;7.00;1.00;;;;;;5079588;28;19908;-86
2023/02/13 10:00:48;;;;;;;;;;;7.00;1.00;;;;;;5078088;28;20279;-86
2023/02/13 10:09:45;;;;;;;;;;;7.30;1.00;;;;;;5096775;28;19961;-86
2023/02/13 10:12:21;;;;;;;;;;;7.40;1.00;;;;;;5097153;28;19954;-86
2023/02/13 10:15:15;;;;;;;;;;;7.50;1.00;;;;;;5084306;28;19912;-87
2023/02/13 10:17:49;;;;;;;;;;;7.60;1.00;;;;;;5078661;28;19919;-86
2023/02/13 10:20:45;;;;;;;;;;;7.80;1.00;;;;;;5078883;28;19908;-86
2023/02/13 10:23:15;;;;;;;;;;;7.80;1.00;;;;;;5066146;28;19913;-86
2023/02/13 10:25:59;;;;;;;;;;;7.90;1.00;;;;;;5094362;28;19915;-86
2023/02/13 10:28:37;;;;;;;;;;;7.90;1.00;;;;;;5062252;28;20011;-87
2023/02/13 10:31:17;;;;;;;;;;;8.10;1.00;;;;;;5059137;28;19908;-86
2023/02/13 10:33:59;;;;;;;;;;;8.30;1.00;;;;;;5074637;28;19916;-86
2023/02/13 10:36:45;;;;;;;;;;;8.40;1.00;;;;;;5078346;28;19915;-87
2023/02/13 10:39:33;;;;;;;;;;;8.40;1.00;;;;;;5083492;28;19908;-86
2023/02/13 10:42:15;;;;;;;;;;;8.40;1.00;;;;;;5066435;28;19966;-85
2023/02/13 10:45:15;;;;;;;;;;;8.60;1.00;;;;;;5068726;28;20283;-85
2023/02/13 10:48:15;;;;;;;;;;;8.70;1.00;;;;;;5085296;28;19977;-80
2023/02/13 10:51:15;;;;;;;;;;;8.90;1.00;;;;;;5083051;28;19916;-80
2023/02/13 10:53:45;;;;;;;;;;;9.00;1.00;;;;;;5087238;28;19995;-79
2023/02/13 10:59:32;;;;;;;;;;;9.10;1.00;;;;;;5090208;28;19916;-82
2023/02/13 11:02:35;;;;;;;;;;;9.20;1.00;;;;;;5088945;28;19912;-81
2023/02/13 11:08:27;;;;;;;;;;;9.40;1.00;;;;;;5082181;28;19966;-80
2023/02/13 11:10:58;;;;;;;;;;;9.50;1.00;;;;;;5052082;28;20422;-78
2023/02/13 11:19:52;;;;;;;;;;;9.90;1.00;;;;;;5039962;28;19943;-78
2023/02/13 11:25:22;;;;;;;;;;;10.10;1.00;;;;;;5049477;28;19915;-78
2023/02/13 11:30:50;;;;;;;;;;;10.20;1.00;;;;;;5052521;28;19931;-80
2023/02/13 11:33:27;;;;;;;;;;;10.30;1.00;;;;;;5041162;28;19913;-80
2023/02/13 11:39:21;;;;;;;;;;;10.60;1.00;;;;;;5042074;28;19951;-80
2023/02/13 11:51:00;;;;;;;;;;;10.90;1.00;;;;;;5074941;28;20141;-80
2023/02/13 11:56:45;;;;;;;;;;;11.00;1.00;;;;;;5094549;28;19915;-79
2023/02/13 11:59:11;;;;;;;;;;;11.10;1.00;;;;;;5081112;28;19940;-78
2023/02/13 12:01:49;;;;;;;;;;;11.10;1.00;;;;;;5093506;28;20367;-78
2023/02/13 12:04:51;;;;;;;;;;;11.10;1.00;;;;;;5083444;28;19919;-78
2023/02/13 12:10:21;;;;;;;;;;;11.30;1.00;;;;;;5083889;28;20391;-78
2023/02/13 12:18:55;;;;;;;;;;;11.60;1.00;;;;;;5091815;28;19962;-78
2023/02/13 12:21:21;;;;;;;;;;;11.60;1.00;;;;;;5083731;28;20316;-78
2023/02/13 12:23:49;;;;;;;;;;;11.70;1.00;;;;;;5078761;28;19997;-78
2023/02/13 12:26:45;;;;;;;;;;;11.80;1.00;;;;;;5081214;28;20378;-80
2023/02/13 12:29:33;;;;;;;;;;;11.90;1.00;;;;;;5075802;28;20338;-80
2023/02/13 12:35:08;;;;;;;;;;;11.90;1.00;;;;;;5079746;28;19923;-80
2023/02/13 12:37:52;;;;;;;;;;;12.00;1.00;;;;;;5084583;28;19916;-80
2023/02/13 12:43:45;;;;;;;;;;;12.10;1.00;;;;;;5092792;28;19937;-78
2023/02/13 12:46:15;;;;;;;;;;;12.20;1.00;;;;;;5081439;28;19966;-78
2023/02/13 12:52:03;;;;;;;;;;;12.30;1.00;;;;;;5079514;28;19954;-79
2023/02/13 12:57:57;;;;;;;;;;;12.40;1.00;;;;;;5093230;28;19916;-78
2023/02/13 13:12:53;;;;;;;;;;;12.60;1.00;;;;;;5092795;28;19920;-80
2023/02/13 13:21:52;;;;;;;;;;;12.80;1.00;;;;;;5073528;28;20057;-80
2023/02/13 13:27:23;;;;;;;;;;;12.90;1.00;;;;;;5090514;28;20011;-80
2023/02/13 13:36:04;;;;;;;;;;;13.10;1.00;;;;;;5077700;28;19965;-80
2023/02/13 13:38:39;;;;;;;;;;;13.10;1.00;;;;;;5095256;28;19955;-80
2023/02/13 13:44:33;;;;;;;;;;;13.10;1.00;;;;;;5094634;28;19935;-78
2023/02/13 13:50:04;;;;;;;;;;;13.20;1.00;;;;;;5089897;28;19923;-78
2023/02/13 13:55:45;;;;;;;;;;;13.20;1.00;;;;;;5087005;28;19918;-78
2023/02/13 13:58:39;;;;;;;;;;;13.20;1.00;;;;;;5095099;28;19947;-76
2023/02/13 14:01:14;;;;;;;;;;;13.30;1.00;;;;;;5092994;28;19912;-76
2023/02/13 14:06:45;;;;;;;;;;;13.30;1.00;;;;;;5085590;28;19919;-77
2023/02/13 14:09:26;;;;;;;;;;;13.30;1.00;;;;;;5094748;28;19939;-75
2023/02/13 14:11:52;;;;;;;;;;;13.30;1.00;;;;;;5084859;28;20327;-76
2023/02/13 14:20:49;;;;;;;;;;;13.30;1.00;;;;;;5094875;28;19951;-79
2023/02/13 14:29:24;;;;;;;;;;;13.20;1.00;;;;;;5083945;28;19919;-79
2023/02/13 14:35:04;;;;;;;;;;;13.10;1.00;;;;;;5084318;28;19962;-79
2023/02/13 14:37:39;;;;;;;;;;;13.10;1.00;;;;;;5087682;28;19912;-80
2023/02/13 14:46:27;;;;;;;;;;;13.00;1.00;;;;;;5078667;28;19923;-77
2023/02/13 14:51:58;;;;;;;;;;;13.10;1.00;;;;;;5089619;28;19923;-81
2023/02/13 14:57:42;;;;;;;;;;;13.10;1.00;;;;;;5083233;28;19935;-80
2023/02/13 15:06:29;;;;;;;;;;;13.10;1.00;;;;;;5088836;28;20343;-79
2023/02/13 15:12:33;;;;;;;;;;;13.00;1.00;;;;;;5088526;28;19960;-78
2023/02/13 15:15:36;;;;;;;;;;;12.90;1.00;;;;;;5082015;28;19916;-79
2023/02/13 15:18:07;;;;;;;;;;;12.90;1.00;;;;;;5005922;28;19925;-78
2023/02/13 15:21:03;;;;;;;;;;;12.80;1.00;;;;;;5001922;28;19987;-78
2023/02/13 15:23:40;;;;;;;;;;;12.90;1.00;;;;;;5002036;28;19952;-77
2023/02/13 15:29:17;;;;;;;;;;;12.80;1.00;;;;;;5013047;28;19920;-78
2023/02/13 15:41:09;;;;;;;;;;;12.50;1.00;;;;;;5012833;28;19933;-78
2023/02/13 15:52:43;;;;;;;;;;;12.30;1.00;;;;;;5066345;28;20330;-79
2023/02/13 16:04:34;;;;;;;;;;;11.80;1.00;;;;;;5085712;28;20387;-77
2023/02/13 16:07:11;;;;;;;;;;;11.60;1.00;;;;;;5093799;28;19916;-77
2023/02/13 16:12:44;;;;;;;;;;;11.50;1.00;;;;;;5095692;28;19914;-77
2023/02/13 16:18:17;;;;;;;;;;;11.30;1.00;;;;;;5094297;28;20416;-80
2023/02/13 16:23:45;;;;;;;;;;;11.10;1.00;;;;;;5094140;28;19915;-79
2023/02/13 16:29:22;;;;;;;;;;;10.80;1.00;;;;;;5082893;28;19919;-77
2023/02/13 16:35:14;;;;;;;;;;;10.50;1.00;;;;;;5078800;28;19962;-77
2023/02/13 16:38:01;;;;;;;;;;;10.30;1.00;;;;;;5088102;28;19916;-78
2023/02/13 16:43:37;;;;;;;;;;;9.90;1.00;;;;;;5087023;28;19920;-77
2023/02/13 16:49:09;;;;;;;;;;;9.60;1.00;;;;;;5094829;28;19926;-81
2023/02/13 17:00:48;;;;;;;;;;;9.10;1.00;;;;;;5087078;28;19919;-77
2023/02/13 17:03:33;;;;;;;;;;;9.00;1.00;;;;;;5091168;28;19909;-77
2023/02/13 17:15:11;;;;;;;;;;;8.40;1.00;;;;;;5081873;28;19955;-77
2023/02/13 17:17:52;;;;;;;;;;;8.30;1.00;;;;;;5097699;28;19915;-78
2023/02/13 17:20:19;;;;;;;;;;;8.20;1.00;;;;;;5093413;28;19981;-77
2023/02/13 17:22:59;;;;;;;;;;;8.10;1.00;;;;;;5080448;28;19917;-78
2023/02/13 17:25:41;;;;;;;;;;;8.00;1.00;;;;;;5083435;28;19954;-78
2023/02/13 17:28:18;;;;;;;;;;;7.90;1.00;;;;;;5097453;28;19915;-77
2023/02/13 17:30:52;;;;;;;;;;;7.80;1.00;;;;;;5097608;28;20254;-79
2023/02/13 17:33:23;;;;;;;;;;;7.70;1.00;;;;;;5094769;28;19919;-76
2023/02/13 17:35:48;;;;;;;;;;;7.60;1.00;;;;;;5085129;28;19926;-77
2023/02/13 17:38:14;;;;;;;;;;;7.40;1.00;;;;;;5095670;28;20006;-77
2023/02/13 17:44:16;;;;;;;;;;;7.30;1.00;;;;;;5086777;28;19919;-78
2023/02/13 17:55:51;;;;;;;;;;;7.00;1.00;;;;;;5088035;28;20065;-79
2023/02/13 18:01:20;;;;;;;;;;;6.80;1.00;;;;;;5095481;28;19915;-78
2023/02/13 18:03:51;;;;;;;;;;;6.80;1.00;;;;;;5078367;28;19913;-78
2023/02/13 18:06:52;;;;;;;;;;;6.70;1.00;;;;;;5094583;28;19919;-78
2023/02/13 18:09:21;;;;;;;;;;;6.70;1.00;;;;;;5095635;28;20012;-79
2023/02/13 18:12:03;;;;;;;;;;;6.60;1.00;;;;;;5089266;28;19919;-79
2023/02/13 18:14:57;;;;;;;;;;;6.60;1.00;;;;;;5082583;28;19915;-79
2023/02/13 18:17:33;;;;;;;;;;;6.50;1.00;;;;;;5086594;28;19953;-79
2023/02/13 18:23:21;;;;;;;;;;;6.40;1.00;;;;;;5090480;28;19919;-78
2023/02/13 18:25:51;;;;;;;;;;;6.40;1.00;;;;;;5096327;28;19968;-79
2023/02/13 18:34:23;;;;;;;;;;;6.30;1.00;;;;;;5079562;28;19915;-79
2023/02/13 18:42:55;;;;;;;;;;;6.20;1.00;;;;;;5089308;28;19962;-85
2023/02/13 18:45:21;;;;;;;;;;;6.20;1.00;;;;;;5071307;28;19916;-78
2023/02/13 18:53:52;;;;;;;;;;;6.00;1.00;;;;;;5095533;28;19915;-78
2023/02/13 18:56:33;;;;;;;;;;;6.00;1.00;;;;;;5083873;28;19920;-80
2023/02/13 18:58:59;;;;;;;;;;;5.90;1.00;;;;;;5097150;28;19908;-75
2023/02/13 19:04:27;;;;;;;;;;;5.80;1.00;;;;;;5076991;28;19916;-86
2023/02/13 19:06:53;;;;;;;;;;;5.70;1.00;;;;;;5077392;28;19909;-86
2023/02/13 19:18:28;;;;;;;;;;;5.50;1.00;;;;;;5089674;28;19916;-87
2023/02/13 19:30:04;;;;;;;;;;;5.40;1.00;;;;;;5088042;28;20322;-82
2023/02/13 19:35:32;;;;;;;;;;;5.30;1.00;;;;;;5083135;28;19947;-85
2023/02/13 19:47:06;;;;;;;;;;;5.20;1.00;;;;;;5077646;28;20016;-86
2023/02/13 19:52:39;;;;;;;;;;;5.10;1.00;;;;;;5090718;28;20291;-86
2023/02/13 19:55:33;;;;;;;;;;;5.10;1.00;;;;;;5067734;28;19908;-88
2023/02/13 19:58:34;;;;;;;;;;;5.00;1.00;;;;;;5069586;28;19912;-88
2023/02/13 20:01:21;;;;;;;;;;;5.00;1.00;;;;;;5075400;28;20556;-82
2023/02/13 20:06:56;;;;;;;;;;;4.90;1.00;;;;;;5093687;28;19918;-79
2023/02/13 20:09:27;;;;;;;;;;;4.80;1.00;;;;;;5090987;28;20271;-79
2023/02/13 20:11:58;;;;;;;;;;;4.80;1.00;;;;;;5077898;28;19912;-76
2023/02/13 20:23:51;;;;;;;;;;;4.60;1.00;;;;;;5089549;28;19915;-85
2023/02/13 20:35:27;;;;;;;;;;;4.40;1.00;;;;;;5094808;28;20036;-85
2023/02/13 20:44:04;;;;;;;;;;;4.20;1.00;;;;;;5084530;28;19964;-85
2023/02/13 20:56:03;;;;;;;;;;;4.00;1.00;;;;;;5081082;28;20006;-85
2023/02/13 20:58:30;;;;;;;;;;;4.00;1.00;;;;;;5080529;28;20412;-85
2023/02/13 21:01:27;;;;;;;;;;;3.90;1.00;;;;;;5073188;28;19919;-85
2023/02/13 21:03:53;;;;;;;;;;;3.90;1.00;;;;;;5098592;28;19917;-76
2023/02/13 21:06:32;;;;;;;;;;;3.90;1.00;;;;;;5093215;28;19944;-75
2023/02/13 21:12:04;;;;;;;;;;;3.80;1.00;;;;;;5097339;28;19950;-76
2023/02/13 21:14:34;;;;;;;;;;;3.70;1.00;;;;;;5083927;28;19931;-76
2023/02/13 21:32:15;;;;;;;;;;;3.50;1.00;;;;;;5080241;28;19959;-77
2023/02/13 21:34:41;;;;;;;;;;;3.40;1.00;;;;;;5090283;28;19936;-76
2023/02/13 21:40:09;;;;;;;;;;;3.30;1.00;;;;;;5086151;28;20429;-76
2023/02/13 21:42:35;;;;;;;;;;;3.30;1.00;;;;;;5090077;28;19916;-76
2023/02/13 21:45:10;;;;;;;;;;;3.30;1.00;;;;;;5081944;28;19920;-76
2023/02/13 21:47:36;;;;;;;;;;;3.20;1.00;;;;;;5085484;28;19985;-85
2023/02/13 21:53:05;;;;;;;;;;;3.10;1.00;;;;;;5093113;28;19918;-85
2023/02/13 21:56:05;;;;;;;;;;;3.10;1.00;;;;;;5074279;28;19912;-85
2023/02/13 21:58:34;;;;;;;;;;;3.10;1.00;;;;;;5072686;28;19912;-85
2023/02/13 22:01:00;;;;;;;;;;;3.00;1.00;;;;;;5093678;28;19925;-85
2023/02/13 22:03:46;;;;;;;;;;;3.00;1.00;;;;;;5093117;28;19957;-76
2023/02/13 22:06:16;;;;;;;;;;;2.90;1.00;;;;;;5092696;28;19909;-76
2023/02/13 22:08:42;;;;;;;;;;;2.90;1.00;;;;;;5091622;28;20285;-76
2023/02/13 22:11:17;;;;;;;;;;;2.90;1.00;;;;;;5087024;28;19912;-76
2023/02/13 22:13:46;;;;;;;;;;;2.80;1.00;;;;;;5095578;28;19908;-76
2023/02/13 22:16:16;;;;;;;;;;;2.80;1.00;;;;;;5086957;28;20011;-76
2023/02/13 22:19:10;;;;;;;;;;;2.80;1.00;;;;;;5090400;28;19963;-76
2023/02/13 22:21:40;;;;;;;;;;;2.80;1.00;;;;;;5087412;28;19919;-76
2023/02/13 22:24:40;;;;;;;;;;;2.80;1.00;;;;;;5090974;28;19912;-76
2023/02/13 22:30:41;;;;;;;;;;;2.70;1.00;;;;;;5088989;28;19924;-76
2023/02/13 22:33:06;;;;;;;;;;;2.70;1.00;;;;;;5076624;28;19916;-85
2023/02/13 22:41:38;;;;;;;;;;;2.60;1.00;;;;;;5096601;28;19923;-85
2023/02/13 22:44:04;;;;;;;;;;;2.60;1.00;;;;;;5067100;28;19924;-85
2023/02/13 22:46:31;;;;;;;;;;;2.50;1.00;;;;;;5096137;28;20433;-85
2023/02/13 22:48:58;;;;;;;;;;;2.50;1.00;;;;;;5095815;28;19986;-76
2023/02/13 22:51:35;;;;;;;;;;;2.50;1.00;;;;;;5085334;28;20372;-76
2023/02/13 22:54:01;;;;;;;;;;;2.50;1.00;;;;;;5083082;28;19916;-77
2023/02/13 22:56:34;;;;;;;;;;;2.50;1.00;;;;;;5090221;28;19920;-76
2023/02/13 22:58:59;;;;;;;;;;;2.50;1.00;;;;;;5094529;28;19908;-76
2023/02/13 23:01:28;;;;;;;;;;;2.50;1.00;;;;;;5084175;28;19935;-76
2023/02/13 23:04:11;;;;;;;;;;;2.40;1.00;;;;;;5087705;28;19912;-76
2023/02/13 23:06:52;;;;;;;;;;;2.40;1.00;;;;;;5091044;28;20367;-76
2023/02/13 23:09:17;;;;;;;;;;;2.30;1.00;;;;;;5087407;28;19985;-76
2023/02/13 23:15:10;;;;;;;;;;;2.30;1.00;;;;;;5084086;28;19919;-76
2023/02/13 23:20:22;;;;;;;;;;;2.20;1.00;;;;;;5092244;28;20423;-76
2023/02/13 23:23:04;;;;;;;;;;;2.20;1.00;;;;;;5089889;28;20368;-76
2023/02/13 23:25:46;;;;;;;;;;;2.20;1.00;;;;;;5076944;28;19909;-76
2023/02/13 23:28:11;;;;;;;;;;;2.10;1.00;;;;;;5092102;28;19927;-76
2023/02/13 23:30:40;;;;;;;;;;;2.10;1.00;;;;;;5092490;28;19946;-76
2023/02/13 23:42:16;;;;;;;;;;;2.00;1.00;;;;;;5079217;28;19923;-85
2023/02/13 23:45:10;;;;;;;;;;;2.00;1.00;;;;;;5089572;28;19936;-86
2023/02/13 23:47:46;;;;;;;;;;;1.90;1.00;;;;;;5081683;28;20420;-86
2023/02/13 23:53:14;;;;;;;;;;;1.80;1.00;;;;;;5095220;28;19919;-86
